Time;durP1;ratioP1;P1;durP2;ratioP2;P2;SDS_P1;SDS_P2;PMS_P1;PMS_P2;Temp;Humidity;BMP_temperature;BMP_pressure;BME280_temperature;BME280_humidity;BME280_pressure;Samples;Min_cycle;Max_cycle;Signal;HPM_P1;HPM_P2
2022/10/05 00:01:09;;;;;;;13.90;10.00;;;;;;;5.81;100.00;98315.76;110454;1247;59684;-77
2022/10/05 00:03:39;;;;;;;11.20;8.10;;;;;;;5.83;100.00;98319.65;110585;1244;71325;-74
2022/10/05 00:06:11;;;;;;;12.00;9.20;;;;;;;5.86;100.00;98325.05;110449;1244;68479;-77
2022/10/05 00:08:40;;;;;;;13.20;9.90;;;;;;;5.90;100.00;98325.61;110356;1244;69599;-75
2022/10/05 00:11:14;;;;;;;9.70;6.90;;;;;;;5.94;100.00;98326.86;110267;1245;59768;-76
2022/10/05 00:13:43;;;;;;;9.10;6.70;;;;;;;5.97;100.00;98327.45;110307;1245;59691;-74
2022/10/05 00:16:20;;;;;;;9.20;6.20;;;;;;;6.01;100.00;98334.02;110405;1244;71558;-75
2022/10/05 00:18:53;;;;;;;8.20;6.10;;;;;;;6.05;100.00;98331.43;110697;1244;68595;-75
2022/10/05 00:21:23;;;;;;;;;;;;;;;6.07;100.00;98331.17;110486;1244;68508;-76
2022/10/05 00:23:57;;;;;;;12.40;8.30;;;;;;;6.10;100.00;98331.39;110551;1244;59694;-77
2022/10/05 00:26:32;;;;;;;20.10;14.40;;;;;;;6.13;100.00;98331.13;110411;1244;59637;-76
2022/10/05 00:29:06;;;;;;;13.90;9.10;;;;;;;6.16;100.00;98328.95;110369;1245;71536;-78
2022/10/05 00:31:35;;;;;;;14.20;9.40;;;;;;;6.18;100.00;98328.52;110476;1247;69357;-77
2022/10/05 00:34:11;;;;;;;12.90;9.00;;;;;;;6.21;100.00;98328.23;110653;1244;68527;-77
2022/10/05 00:36:41;;;;;;;12.30;9.40;;;;;;;6.23;100.00;98325.71;110270;1244;59742;-75
2022/10/05 00:39:10;;;;;;;11.50;8.00;;;;;;;6.23;100.00;98326.23;110182;1247;59679;-77
2022/10/05 00:41:42;;;;;;;11.10;7.80;;;;;;;6.24;100.00;98327.39;110569;1247;71493;-76
2022/10/05 00:44:13;;;;;;;9.60;7.70;;;;;;;6.24;100.00;98323.24;110216;1246;69465;-75
2022/10/05 00:47:00;;;;;;;16.30;11.90;;;;;;;6.26;100.00;98324.88;110592;1244;69444;-77
2022/10/05 00:49:49;;;;;;;12.60;9.30;;;;;;;6.28;100.00;98326.02;110449;1247;59766;-76
2022/10/05 00:52:25;;;;;;;;;;;;;;;6.30;100.00;98327.30;110400;1245;59701;-76
2022/10/05 00:55:01;;;;;;;11.50;8.90;;;;;;;6.31;100.00;98330.23;110403;1244;70726;-76
2022/10/05 00:57:40;;;;;;;12.70;9.00;;;;;;;6.34;100.00;98330.98;110353;1244;69440;-75
2022/10/05 01:00:15;;;;;;;11.60;8.90;;;;;;;6.35;100.00;98333.67;110238;1246;69436;-76
2022/10/05 01:03:02;;;;;;;15.10;10.90;;;;;;;6.37;100.00;98338.43;110265;1244;59747;-76
2022/10/05 01:05:49;;;;;;;13.30;10.40;;;;;;;6.38;100.00;98337.89;110480;1244;59630;-78
2022/10/05 01:09:08;;;;;;;13.60;8.90;;;;;;;6.37;100.00;98341.90;110590;1244;71487;-78
2022/10/05 01:11:50;;;;;;;11.00;7.90;;;;;;;6.38;100.00;98343.80;110042;1246;69408;-78
2022/10/05 01:14:25;;;;;;;8.20;6.30;;;;;;;6.36;100.00;98345.75;110480;1246;69223;-78
2022/10/05 01:17:15;;;;;;;10.60;6.80;;;;;;;6.35;100.00;98347.89;110609;1243;59707;-76
2022/10/05 01:20:10;;;;;;;11.70;8.80;;;;;;;6.32;100.00;98350.76;110256;1244;59605;-77
2022/10/05 01:23:13;;;;;;;10.30;6.10;;;;;;;6.30;100.00;98354.30;110417;1246;71505;-78
2022/10/05 01:25:42;;;;;;;11.20;8.30;;;;;;;6.30;100.00;98359.52;110667;1244;69258;-76
2022/10/05 01:28:55;;;;;;;10.70;7.60;;;;;;;6.30;100.00;98365.73;110581;1244;69197;-77
2022/10/05 01:31:41;;;;;;;13.20;9.30;;;;;;;6.32;100.00;98366.69;110175;1247;59681;-77
2022/10/05 01:34:36;;;;;;;11.90;7.80;;;;;;;6.32;100.00;98374.83;110429;1246;59760;-76
2022/10/05 01:37:21;;;;;;;9.50;7.40;;;;;;;6.32;100.00;98380.71;110418;1244;71452;-77
2022/10/05 01:39:59;;;;;;;10.50;7.60;;;;;;;6.33;100.00;98381.90;110613;1246;69484;-77
2022/10/05 01:42:51;;;;;;;12.20;7.60;;;;;;;6.33;100.00;98385.55;110323;1244;68665;-76
2022/10/05 01:45:28;;;;;;;15.40;10.20;;;;;;;6.32;100.00;98385.20;110513;1244;59737;-76
2022/10/05 01:48:13;;;;;;;14.50;9.50;;;;;;;6.30;100.00;98386.56;110620;1244;59716;-76
2022/10/05 01:51:03;;;;;;;13.20;9.60;;;;;;;6.27;100.00;98392.02;110548;1243;70698;-76
2022/10/05 01:53:45;;;;;;;11.90;8.10;;;;;;;6.24;100.00;98394.89;110179;1247;69413;-78
2022/10/05 01:56:16;;;;;;;13.00;8.30;;;;;;;6.25;100.00;98392.95;110418;1244;69265;-79
2022/10/05 01:58:51;;;;;;;12.80;8.00;;;;;;;6.25;100.00;98391.55;110093;1247;59705;-76
2022/10/05 02:01:30;;;;;;;11.90;9.00;;;;;;;6.27;100.00;98391.47;110414;1245;59736;-78
2022/10/05 02:04:10;;;;;;;12.30;8.80;;;;;;;6.28;100.00;98393.35;110218;1247;71067;-74
2022/10/05 02:06:53;;;;;;;11.90;9.30;;;;;;;6.29;100.00;98391.79;110278;1244;69294;-76
2022/10/05 02:09:31;;;;;;;12.30;8.40;;;;;;;6.28;100.00;98383.12;110357;1244;68712;-76
2022/10/05 02:12:13;;;;;;;15.20;10.10;;;;;;;6.27;100.00;98379.00;110407;1244;59688;-77
2022/10/05 02:14:49;;;;;;;15.30;10.70;;;;;;;6.24;100.00;98373.27;110340;1244;60080;-77
2022/10/05 02:17:32;;;;;;;14.10;10.00;;;;;;;6.18;100.00;98374.73;110287;1243;70848;-76
2022/10/05 02:20:10;;;;;;;12.00;8.20;;;;;;;6.08;100.00;98377.67;110373;1247;68510;-76
2022/10/05 02:22:50;;;;;;;10.30;7.20;;;;;;;6.01;100.00;98379.69;110380;1244;68584;-76
2022/10/05 02:25:26;;;;;;;11.60;8.00;;;;;;;5.95;100.00;98383.77;110285;1244;59687;-78
2022/10/05 02:28:01;;;;;;;12.50;7.60;;;;;;;5.88;100.00;98384.86;110465;1244;59605;-78
2022/10/05 02:30:37;;;;;;;11.70;8.50;;;;;;;5.80;100.00;98384.27;110504;1245;71404;-77
2022/10/05 02:33:15;;;;;;;10.60;7.80;;;;;;;5.73;100.00;98389.41;111276;1246;69443;-77
2022/10/05 02:35:45;;;;;;;12.10;8.20;;;;;;;5.65;100.00;98393.33;110823;1244;68655;-76
2022/10/05 02:38:44;;;;;;;9.40;6.30;;;;;;;5.57;100.00;98394.84;110498;1244;59689;-78
2022/10/05 02:41:31;;;;;;;17.60;8.00;;;;;;;5.48;100.00;98392.59;110530;1244;59747;-76
2022/10/05 02:44:32;;;;;;;18.20;8.70;;;;;;;5.39;100.00;98391.88;110606;1244;70837;-77
2022/10/05 02:47:22;;;;;;;24.40;7.30;;;;;;;5.31;100.00;98392.48;110569;1247;69277;-77
2022/10/05 02:50:09;;;;;;;16.70;6.90;;;;;;;5.27;100.00;98400.27;110256;1245;68467;-77
2022/10/05 02:53:19;;;;;;;16.90;6.80;;;;;;;5.24;100.00;98406.42;110349;1244;59728;-77
2022/10/05 02:55:54;;;;;;;31.70;7.30;;;;;;;5.21;100.00;98408.09;109750;1253;59891;-77
2022/10/05 02:58:26;;;;;;;11.90;5.70;;;;;;;5.18;100.00;98409.39;110203;1245;70802;-76
2022/10/05 03:01:11;;;;;;;19.00;5.80;;;;;;;5.16;100.00;98417.26;110297;1247;68881;-76
2022/10/05 03:03:48;;;;;;;17.60;7.00;;;;;;;5.14;100.00;98418.86;110376;1247;69411;-77
2022/10/05 03:06:35;;;;;;;19.00;7.90;;;;;;;5.12;100.00;98421.35;110593;1246;59789;-76
2022/10/05 03:09:05;;;;;;;11.90;7.30;;;;;;;5.10;100.00;98424.36;110399;1245;59711;-76
2022/10/05 03:12:01;;;;;;;11.20;6.90;;;;;;;5.09;100.00;98414.89;110212;1246;71595;-76
2022/10/05 03:14:56;;;;;;;41.60;8.10;;;;;;;5.12;100.00;98417.88;110433;1245;69390;-77
2022/10/05 03:17:36;;;;;;;18.00;8.50;;;;;;;5.18;100.00;98420.61;109959;1250;69453;-76
2022/10/05 03:20:18;;;;;;;10.90;6.60;;;;;;;5.25;100.00;98421.40;110332;1245;59608;-77
2022/10/05 03:22:52;;;;;;;11.90;7.40;;;;;;;5.31;100.00;98420.00;110175;1247;59715;-78
2022/10/05 03:25:35;;;;;;;15.80;9.90;;;;;;;5.34;100.00;98424.55;110165;1247;71511;-77
2022/10/05 03:28:18;;;;;;;17.90;8.70;;;;;;;5.38;100.00;98427.86;110562;1247;69296;-78
2022/10/05 03:31:21;;;;;;;37.20;9.90;;;;;;;5.42;100.00;98426.50;110673;1245;69461;-76
2022/10/05 03:34:10;;;;;;;19.10;9.60;;;;;;;5.48;100.00;98432.69;110349;1246;59722;-79
2022/10/05 03:36:51;;;;;;;;;;;;;;;5.49;100.00;98437.85;110602;1245;59789;-76
2022/10/05 03:39:46;;;;;;;15.90;5.10;;;;;;;5.46;100.00;98436.77;110860;1244;71540;-76
2022/10/05 03:42:21;;;;;;;28.50;8.70;;;;;;;5.47;100.00;98437.59;110611;1245;68572;-76
2022/10/05 03:45:17;;;;;;;53.70;11.00;;;;;;;5.47;100.00;98436.36;110975;1244;69309;-78
2022/10/05 03:48:07;;;;;;;116.30;15.70;;;;;;;5.45;100.00;98435.02;110283;1244;59751;-77
2022/10/05 03:50:44;;;;;;;;;;;;;;;5.43;100.00;98440.81;110738;1243;59693;-77
2022/10/05 03:53:21;;;;;;;21.00;9.90;;;;;;;5.44;100.00;98439.75;110480;1244;70846;-77
2022/10/05 03:56:16;;;;;;;12.90;6.20;;;;;;;5.45;100.00;98443.16;110703;1244;69586;-75
2022/10/05 03:58:48;;;;;;;6.40;4.10;;;;;;;5.46;100.00;98445.38;110535;1244;68532;-74
2022/10/05 04:01:50;;;;;;;27.00;8.90;;;;;;;5.48;100.00;98452.23;110408;1245;59679;-75
2022/10/05 04:04:32;;;;;;;8.30;4.90;;;;;;;5.47;100.00;98457.60;110224;1248;59742;-77
2022/10/05 04:07:01;;;;;;;19.00;7.50;;;;;;;5.44;100.00;98463.42;110434;1244;70747;-76
2022/10/05 04:09:35;;;;;;;13.80;7.20;;;;;;;5.46;100.00;98466.12;110509;1243;67630;-77
2022/10/05 04:12:15;;;;;;;20.60;8.60;;;;;;;5.49;100.00;98467.92;110422;1244;70083;-76
2022/10/05 04:14:48;;;;;;;14.60;6.20;;;;;;;5.50;100.00;98469.62;110251;1246;59737;-77
2022/10/05 04:17:22;;;;;;;23.20;8.50;;;;;;;5.52;100.00;98475.08;110586;1245;59630;-77
2022/10/05 04:20:16;;;;;;;22.30;9.00;;;;;;;5.53;100.00;98474.36;110445;1246;71506;-78
2022/10/05 04:23:26;;;;;;;17.90;7.50;;;;;;;5.51;100.00;98478.08;110483;1244;68585;-77
2022/10/05 04:26:01;;;;;;;32.10;9.70;;;;;;;5.48;100.00;98479.18;110453;1244;69395;-77
2022/10/05 04:28:49;;;;;;;20.00;8.20;;;;;;;5.47;100.00;98482.17;110462;1244;59759;-77
2022/10/05 04:31:35;;;;;;;23.70;10.00;;;;;;;5.45;100.00;98485.20;110378;1244;59680;-77
2022/10/05 04:34:22;;;;;;;28.90;10.30;;;;;;;5.44;100.00;98487.64;110379;1244;71737;-77
2022/10/05 04:37:01;;;;;;;17.10;7.70;;;;;;;5.45;100.00;98491.57;110317;1245;69361;-76
2022/10/05 04:40:08;;;;;;;27.90;10.20;;;;;;;5.48;100.00;98498.57;110502;1244;68915;-77
2022/10/05 04:42:49;;;;;;;31.40;9.00;;;;;;;5.50;100.00;98502.65;110454;1245;59787;-76
2022/10/05 04:45:20;;;;;;;;;;;;;;;5.52;100.00;98505.18;111158;1244;59682;-76
2022/10/05 04:48:12;;;;;;;18.00;7.50;;;;;;;5.52;100.00;98505.52;110554;1244;71530;-76
2022/10/05 04:50:47;;;;;;;28.00;9.10;;;;;;;5.52;100.00;98505.35;110401;1244;69459;-74
2022/10/05 04:53:46;;;;;;;17.70;8.70;;;;;;;5.51;100.00;98511.96;110739;1244;69338;-75
2022/10/05 04:56:20;;;;;;;15.40;8.00;;;;;;;5.55;100.00;98516.30;110601;1244;59699;-76
2022/10/05 04:59:16;;;;;;;26.30;10.30;;;;;;;5.61;100.00;98524.57;110586;1244;59676;-75
2022/10/05 05:02:02;;;;;;;62.40;16.00;;;;;;;5.67;100.00;98528.16;110242;1244;70892;-78
2022/10/05 05:04:51;;;;;;;52.10;10.80;;;;;;;5.62;100.00;98522.43;110344;1244;69408;-78
2022/10/05 05:07:38;;;;;;;18.90;8.00;;;;;;;5.56;100.00;98525.93;110757;1244;69344;-77
2022/10/05 05:10:12;;;;;;;28.30;12.20;;;;;;;5.71;100.00;98528.71;110342;1244;59688;-76
2022/10/05 05:12:49;;;;;;;25.50;10.80;;;;;;;5.80;100.00;98534.42;110653;1244;59703;-76
2022/10/05 05:15:45;;;;;;;77.50;16.70;;;;;;;5.77;100.00;98538.18;110404;1244;70769;-78
2022/10/05 05:18:38;;;;;;;54.20;12.70;;;;;;;5.72;100.00;98541.14;110349;1245;68835;-78
2022/10/05 05:21:21;;;;;;;27.50;9.50;;;;;;;5.70;100.00;98542.23;110540;1244;69417;-77
2022/10/05 05:24:12;;;;;;;13.70;8.50;;;;;;;5.75;100.00;98544.33;110553;1243;59704;-76
2022/10/05 05:26:56;;;;;;;19.40;8.60;;;;;;;5.80;100.00;98547.58;110283;1244;59650;-78
2022/10/05 05:29:55;;;;;;;52.40;11.40;;;;;;;5.83;100.00;98545.73;110291;1244;71524;-76
2022/10/05 05:32:41;;;;;;;43.40;10.40;;;;;;;5.84;100.00;98547.63;110319;1246;69336;-76
2022/10/05 05:35:36;;;;;;;16.70;7.60;;;;;;;5.82;100.00;98545.09;110449;1244;70025;-76
2022/10/05 05:38:35;;;;;;;23.40;8.20;;;;;;;5.83;100.00;98552.32;109973;1244;517571;-76
2022/10/05 05:41:09;;;;;;;11.60;6.50;;;;;;;5.88;100.00;98553.38;110226;1247;59734;-76
2022/10/05 05:44:02;;;;;;;15.20;8.10;;;;;;;5.90;100.00;98556.57;110348;1244;71372;-75
2022/10/05 05:46:37;;;;;;;15.00;8.70;;;;;;;5.94;100.00;98553.00;110205;1247;69311;-77
2022/10/05 05:49:50;;;;;;;27.70;10.50;;;;;;;6.02;100.00;98555.30;110304;1245;68547;-75
2022/10/05 05:52:33;;;;;;;22.50;8.30;;;;;;;6.08;100.00;98558.54;110244;1244;59665;-77
2022/10/05 05:55:19;;;;;;;14.60;7.80;;;;;;;6.16;100.00;98561.73;110450;1244;59646;-75
2022/10/05 05:57:56;;;;;;;11.40;7.30;;;;;;;6.22;100.00;98567.40;110285;1246;72113;-75
2022/10/05 06:00:30;;;;;;;10.60;7.00;;;;;;;6.26;100.00;98571.42;110199;1247;69495;-77
2022/10/05 06:03:21;;;;;;;9.80;7.00;;;;;;;6.23;100.00;98579.30;110434;1244;68539;-74
2022/10/05 06:06:03;;;;;;;9.60;6.10;;;;;;;6.25;100.00;98589.45;110437;1245;59697;-75
2022/10/05 06:08:43;;;;;;;9.70;6.40;;;;;;;6.31;100.00;98591.14;110329;1246;59751;-75
2022/10/05 06:11:59;;;;;;;7.90;5.40;;;;;;;6.39;100.00;98597.41;110484;1244;70989;-75
2022/10/05 06:14:29;;;;;;;12.40;7.10;;;;;;;6.52;100.00;98600.23;110835;1247;68483;-76
2022/10/05 06:17:02;;;;;;;9.50;7.00;;;;;;;6.61;99.94;98604.17;110632;1244;69713;-76
2022/10/05 06:19:33;;;;;;;8.20;5.50;;;;;;;6.73;99.77;98603.26;110507;1244;59694;-77
2022/10/05 06:22:23;;;;;;;10.30;7.20;;;;;;;6.82;98.48;98604.95;110703;1244;59699;-77
2022/10/05 06:24:57;;;;;;;8.40;5.90;;;;;;;6.94;99.09;98610.37;111222;1245;71396;-73
2022/10/05 06:27:33;;;;;;;13.30;8.10;;;;;;;7.04;98.15;98608.27;110432;1247;68430;-75
2022/10/05 06:30:14;;;;;;;7.80;5.70;;;;;;;7.13;98.27;98610.84;110629;1244;68779;-75
2022/10/05 06:32:50;;;;;;;11.00;7.50;;;;;;;7.17;98.37;98613.12;110413;1244;60066;-75
2022/10/05 06:35:38;;;;;;;9.60;6.90;;;;;;;7.13;98.15;98614.14;110526;1244;59690;-74
2022/10/05 06:38:34;;;;;;;8.40;5.70;;;;;;;7.11;98.15;98622.36;110544;1244;71403;-77
2022/10/05 06:41:26;;;;;;;8.40;6.20;;;;;;;7.17;97.96;98625.77;110471;1244;68798;-77
2022/10/05 06:43:59;;;;;;;14.60;9.30;;;;;;;7.18;98.36;98630.60;110173;1247;69511;-75
2022/10/05 06:47:03;;;;;;;11.80;8.50;;;;;;;7.54;100.00;98634.69;110265;1246;59747;-74
2022/10/05 06:49:53;;;;;;;10.30;7.40;;;;;;;7.67;100.00;98639.88;110275;1245;59691;-75
2022/10/05 06:52:50;;;;;;;7.90;5.90;;;;;;;7.95;97.07;98645.13;110454;1245;71789;-74
2022/10/05 06:55:33;;;;;;;7.20;5.60;;;;;;;8.15;92.60;98648.09;110393;1245;69388;-74
2022/10/05 06:58:19;;;;;;;7.70;6.00;;;;;;;8.35;92.86;98645.31;110246;1244;69304;-74
2022/10/05 07:00:47;;;;;;;9.00;5.70;;;;;;;8.55;90.79;98650.18;110306;1244;59751;-75
2022/10/05 07:03:24;;;;;;;12.40;8.10;;;;;;;8.70;90.26;98654.52;110377;1244;59684;-75
2022/10/05 07:06:05;;;;;;;10.60;6.90;;;;;;;8.93;88.18;98652.77;110273;1244;71861;-75
2022/10/05 07:08:53;;;;;;;13.20;8.30;;;;;;;9.03;86.23;98653.85;110079;1245;69363;-76
2022/10/05 07:11:34;;;;;;;26.90;16.30;;;;;;;9.14;86.60;98652.48;110175;1245;68562;-77
2022/10/05 07:14:13;;;;;;;13.70;9.70;;;;;;;9.26;86.35;98654.03;110216;1247;59690;-75
2022/10/05 07:17:08;;;;;;;9.00;6.90;;;;;;;9.06;85.94;98654.60;110265;1245;59626;-76
2022/10/05 07:20:14;;;;;;;9.00;7.10;;;;;;;9.03;86.19;98656.63;110657;1247;70882;-77
2022/10/05 07:23:02;;;;;;;8.30;5.90;;;;;;;9.00;83.92;98659.56;110273;1244;69284;-77
2022/10/05 07:25:39;;;;;;;7.40;5.60;;;;;;;9.18;83.55;98662.37;110381;1244;68543;-76
2022/10/05 07:28:22;;;;;;;7.30;5.90;;;;;;;9.34;84.15;98666.31;110322;1242;59715;-76
2022/10/05 07:30:55;;;;;;;8.70;6.40;;;;;;;9.29;84.14;98668.99;110385;1244;59620;-75
2022/10/05 07:33:41;;;;;;;8.00;6.20;;;;;;;9.35;84.38;98670.45;110361;1244;72124;-75
2022/10/05 07:39:37;;;;;;;7.00;4.90;;;;;;;9.79;83.62;98682.21;110530;1244;70902;-77
2022/10/05 07:42:47;;;;;;;7.60;5.40;;;;;;;9.81;80.85;98681.41;110240;1245;59691;-76
2022/10/05 07:45:56;;;;;;;8.30;6.00;;;;;;;9.98;79.88;98672.92;110241;1246;59682;-77
2022/10/05 07:48:31;;;;;;;8.90;6.00;;;;;;;9.96;79.69;98677.72;110132;1247;72046;-76
2022/10/05 07:51:20;;;;;;;8.00;5.90;;;;;;;10.04;79.45;98677.86;110298;1244;68897;-76
2022/10/05 07:54:09;;;;;;;7.60;5.50;;;;;;;9.89;80.25;98676.52;110631;1244;69322;-76
2022/10/05 07:56:47;;;;;;;7.40;6.40;;;;;;;10.21;79.73;98679.59;110470;1246;60116;-76
2022/10/05 07:59:28;;;;;;;9.50;6.20;;;;;;;10.41;79.11;98677.16;110483;1244;60225;-77
2022/10/05 08:02:06;;;;;;;6.90;5.70;;;;;;;10.90;78.40;98677.58;110316;1245;71678;-77
2022/10/05 08:04:45;;;;;;;6.70;5.50;;;;;;;11.73;76.62;98674.16;110364;1244;68554;-76
2022/10/05 08:07:17;;;;;;;6.50;5.30;;;;;;;11.81;71.32;98670.39;110353;1244;69324;-76
2022/10/05 08:09:59;;;;;;;6.90;5.20;;;;;;;11.68;69.37;98671.66;110408;1244;59761;-76
2022/10/05 08:13:03;;;;;;;6.60;4.40;;;;;;;11.76;68.73;98665.60;110249;1246;59691;-76
2022/10/05 08:15:38;;;;;;;5.60;5.00;;;;;;;11.97;68.56;98662.30;110219;1247;71553;-75
2022/10/05 08:18:16;;;;;;;6.20;4.30;;;;;;;12.51;67.87;98665.75;110245;1245;70081;-78
2022/10/05 08:20:50;;;;;;;4.80;3.50;;;;;;;13.19;64.12;98668.64;110257;1244;69360;-77
2022/10/05 08:23:37;;;;;;;5.20;3.70;;;;;;;13.68;61.59;98671.71;110694;1244;59791;-78
2022/10/05 08:26:23;;;;;;;5.20;4.40;;;;;;;14.16;60.58;98659.40;110741;1246;59695;-78
2022/10/05 08:28:56;;;;;;;6.50;4.30;;;;;;;14.62;58.72;98649.90;110313;1246;71499;-78
2022/10/05 08:31:31;;;;;;;5.90;4.00;;;;;;;15.06;58.84;98651.56;110616;1244;68694;-75
2022/10/05 08:34:08;;;;;;;4.70;3.90;;;;;;;15.04;57.43;98656.27;110430;1246;68855;-76
2022/10/05 08:36:39;;;;;;;5.10;4.20;;;;;;;14.84;57.97;98651.51;110489;1245;59722;-75
2022/10/05 08:39:14;;;;;;;4.90;3.90;;;;;;;15.97;56.61;98657.20;110221;1247;59682;-75
2022/10/05 08:42:06;;;;;;;4.70;3.30;;;;;;;15.85;56.00;98664.05;110310;1244;71419;-75
2022/10/05 08:44:39;;;;;;;4.20;3.00;;;;;;;16.35;55.17;98663.42;110253;1245;69681;-77
2022/10/05 08:47:22;;;;;;;4.20;3.50;;;;;;;16.23;52.82;98655.79;110369;1244;68809;-75
2022/10/05 08:50:24;;;;;;;4.20;3.60;;;;;;;17.36;52.56;98656.91;110378;1244;59685;-75
2022/10/05 08:53:18;;;;;;;5.00;3.50;;;;;;;17.57;50.74;98650.87;110225;1244;59682;-75
2022/10/05 08:56:01;;;;;;;3.40;3.00;;;;;;;17.65;49.65;98648.44;110318;1244;72090;-77
2022/10/05 08:58:46;;;;;;;4.40;3.30;;;;;;;17.18;49.54;98650.34;110388;1244;69460;-77
2022/10/05 09:01:26;;;;;;;5.70;3.00;;;;;;;17.00;50.88;98658.90;110398;1244;69942;-76
2022/10/05 09:04:19;;;;;;;;;;;;;;;16.91;50.80;98670.17;110369;1244;59757;-75
2022/10/05 09:07:00;;;;;;;4.70;3.30;;;;;;;16.69;51.92;98672.11;110450;1244;59688;-74
2022/10/05 09:09:37;;;;;;;4.30;3.70;;;;;;;16.90;51.40;98678.42;110400;1244;71381;-75
2022/10/05 09:12:36;;;;;;;3.20;2.70;;;;;;;16.78;51.79;98678.30;110455;1244;69364;-76
2022/10/05 09:15:22;;;;;;;;;;;;;;;15.76;53.24;98691.24;110045;1247;69690;-77
2022/10/05 09:18:30;;;;;;;4.00;3.20;;;;;;;15.04;55.38;98691.51;110433;1245;59744;-77
2022/10/05 09:21:42;;;;;;;4.70;3.30;;;;;;;15.58;53.93;98701.74;110559;1244;59686;-76
2022/10/05 09:24:27;;;;;;;4.40;3.50;;;;;;;16.54;52.57;98703.90;110204;1244;71436;-77
2022/10/05 09:27:15;;;;;;;4.40;3.80;;;;;;;16.55;53.12;98703.11;110511;1246;69270;-76
2022/10/05 09:30:13;;;;;;;4.00;2.90;;;;;;;17.12;52.08;98712.29;110453;1247;69380;-76
2022/10/05 09:33:09;;;;;;;3.90;3.30;;;;;;;17.76;50.78;98712.73;110690;1243;59672;-74
2022/10/05 09:36:03;;;;;;;5.40;4.10;;;;;;;17.78;49.53;98711.21;110418;1244;59703;-75
2022/10/05 09:38:31;;;;;;;6.30;4.40;;;;;;;18.06;48.22;98712.75;110596;1244;72191;-74
2022/10/05 09:41:20;;;;;;;4.60;4.00;;;;;;;18.07;49.22;98707.96;110343;1245;68659;-75
2022/10/05 09:43:59;;;;;;;5.80;3.90;;;;;;;18.11;48.90;98709.04;110264;1245;67762;-75
2022/10/05 09:46:54;;;;;;;5.10;3.90;;;;;;;17.77;48.01;98710.73;110348;1246;59668;-75
2022/10/05 09:49:27;;;;;;;4.70;3.50;;;;;;;17.84;47.40;98710.91;110217;1246;59697;-75
2022/10/05 09:51:58;;;;;;;4.60;2.70;;;;;;;17.20;48.22;98706.35;110084;1247;71171;-75
2022/10/05 09:54:50;;;;;;;6.20;4.10;;;;;;;16.90;48.72;98705.14;110494;1247;69332;-77
2022/10/05 09:57:33;;;;;;;5.00;3.60;;;;;;;17.01;50.23;98703.08;110352;1245;69306;-77
2022/10/05 10:00:23;;;;;;;5.80;3.30;;;;;;;16.97;50.00;98702.00;110382;1245;59755;-75
2022/10/05 10:03:16;;;;;;;5.50;4.20;;;;;;;17.32;48.67;98696.52;110374;1244;59670;-76
2022/10/05 10:06:29;;;;;;;4.90;4.20;;;;;;;17.25;47.55;98699.38;110273;1246;71454;-75
2022/10/05 10:09:14;;;;;;;5.70;3.60;;;;;;;17.65;47.12;98697.59;110172;1246;69647;-75
2022/10/05 10:12:04;;;;;;;4.30;3.60;;;;;;;18.85;47.39;98687.04;110220;1246;68569;-74
2022/10/05 10:14:37;;;;;;;4.40;3.60;;;;;;;19.07;43.58;98686.39;110378;1244;59735;-75
2022/10/05 10:17:42;;;;;;;4.60;3.70;;;;;;;19.29;43.66;98688.81;110600;1243;59695;-76
2022/10/05 10:20:25;;;;;;;5.80;3.80;;;;;;;19.93;42.07;98686.25;110657;1244;71565;-74
2022/10/05 10:23:10;;;;;;;4.40;3.70;;;;;;;19.70;42.18;98686.71;110463;1245;70829;-77
2022/10/05 10:25:46;;;;;;;4.20;2.90;;;;;;;20.65;42.37;98681.17;110385;1244;70073;-75
2022/10/05 10:28:20;;;;;;;4.80;2.80;;;;;;;20.69;42.53;98681.72;110537;1244;59739;-76
2022/10/05 10:31:12;;;;;;;3.60;2.80;;;;;;;21.71;41.18;98683.78;110548;1244;59615;-76
2022/10/05 10:33:59;;;;;;;4.10;2.80;;;;;;;22.75;39.69;98672.11;110255;1246;71969;-75
2022/10/05 10:36:50;;;;;;;4.40;3.20;;;;;;;23.02;37.56;98665.71;111000;1246;69295;-76
2022/10/05 10:39:53;;;;;;;4.60;2.90;;;;;;;22.26;35.70;98664.03;110393;1246;67839;-76
2022/10/05 10:42:40;;;;;;;3.40;2.50;;;;;;;22.32;36.74;98657.34;110117;1246;59751;-75
2022/10/05 10:45:13;;;;;;;2.80;2.20;;;;;;;22.04;37.88;98650.05;110325;1246;59752;-75
2022/10/05 10:47:50;;;;;;;5.40;2.50;;;;;;;21.93;37.66;98653.02;110483;1244;70889;-76
2022/10/05 10:50:43;;;;;;;2.50;2.10;;;;;;;21.91;37.52;98652.02;110284;1244;68564;-74
2022/10/05 10:53:48;;;;;;;3.90;2.70;;;;;;;19.26;40.26;98647.46;110396;1245;69561;-76
2022/10/05 10:56:45;;;;;;;4.50;3.10;;;;;;;18.61;42.19;98638.44;110263;1244;59748;-75
2022/10/05 10:59:54;;;;;;;4.60;3.50;;;;;;;18.62;42.01;98630.92;110352;1244;59655;-76
2022/10/05 11:02:26;;;;;;;3.80;2.70;;;;;;;19.34;40.86;98634.61;110426;1245;71217;-76
2022/10/05 11:05:00;;;;;;;4.70;3.40;;;;;;;19.71;40.76;98623.19;110450;1244;69267;-75
2022/10/05 11:07:48;;;;;;;4.00;2.70;;;;;;;20.04;40.38;98622.48;110333;1245;69663;-74
2022/10/05 11:10:24;;;;;;;2.60;2.00;;;;;;;19.40;40.06;98615.14;110507;1244;59680;-75
2022/10/05 11:13:06;;;;;;;3.20;1.80;;;;;;;19.24;40.55;98611.91;110444;1244;59740;-74
2022/10/05 11:15:54;;;;;;;2.90;2.10;;;;;;;19.49;40.00;98614.57;110376;1244;71538;-75
2022/10/05 11:18:26;;;;;;;3.50;2.20;;;;;;;19.71;39.38;98617.05;110374;1246;69869;-77
2022/10/05 11:21:35;;;;;;;2.70;1.40;;;;;;;20.17;37.42;98616.70;110481;1245;70046;-78
2022/10/05 11:24:14;;;;;;;3.50;2.30;;;;;;;19.54;39.10;98617.95;110298;1246;59733;-75
2022/10/05 11:27:14;;;;;;;2.70;2.00;;;;;;;18.67;40.74;98620.80;110319;1247;60122;-74
2022/10/05 11:29:41;;;;;;;2.60;1.90;;;;;;;18.82;41.16;98618.98;110327;1246;71330;-76
2022/10/05 11:32:23;;;;;;;3.60;2.30;;;;;;;18.43;42.30;98621.26;110435;1245;69425;-75
2022/10/05 11:35:28;;;;;;;2.70;2.00;;;;;;;18.44;43.00;98618.54;110464;1244;68715;-77
2022/10/05 11:38:29;;;;;;;3.80;2.60;;;;;;;18.16;43.58;98609.80;110474;1242;59734;-77
2022/10/05 11:41:02;;;;;;;3.10;1.70;;;;;;;18.14;43.68;98603.81;110758;1244;59633;-75
2022/10/05 11:44:06;;;;;;;5.00;3.10;;;;;;;18.06;43.44;98601.32;110651;1244;71793;-77
2022/10/05 11:47:10;;;;;;;3.30;2.70;;;;;;;17.62;44.21;98598.62;110420;1244;69337;-76
2022/10/05 11:49:50;;;;;;;4.20;2.70;;;;;;;17.18;45.78;98604.12;110685;1244;69832;-73
2022/10/05 11:52:20;;;;;;;5.20;3.40;;;;;;;17.05;46.56;98605.23;110512;1244;59692;-73
2022/10/05 11:55:01;;;;;;;3.40;2.30;;;;;;;16.96;46.62;98605.37;110505;1244;59670;-74
2022/10/05 11:57:55;;;;;;;3.20;2.20;;;;;;;16.84;47.14;98605.65;110712;1244;70680;-76
2022/10/05 12:00:24;;;;;;;3.20;2.40;;;;;;;16.72;47.27;98599.16;110646;1244;68624;-74
2022/10/05 12:03:28;;;;;;;2.50;2.20;;;;;;;17.05;46.79;98599.90;110402;1244;69236;-74
2022/10/05 12:06:15;;;;;;;3.20;2.10;;;;;;;17.41;45.77;98601.23;110440;1244;59627;-74
2022/10/05 12:08:55;;;;;;;3.70;1.90;;;;;;;17.48;45.94;98601.33;110569;1244;59696;-74
2022/10/05 12:11:28;;;;;;;3.50;2.20;;;;;;;17.43;45.73;98603.65;110521;1244;70760;-77
2022/10/05 12:14:19;;;;;;;2.40;1.80;;;;;;;17.29;45.68;98604.11;110574;1244;69211;-76
2022/10/05 12:16:58;;;;;;;2.40;2.10;;;;;;;17.21;46.81;98601.09;110422;1244;70051;-75
2022/10/05 12:19:32;;;;;;;2.50;1.90;;;;;;;17.11;47.49;98595.42;110608;1244;59751;-76
2022/10/05 12:22:14;;;;;;;3.60;2.50;;;;;;;17.75;47.22;98588.15;110825;1244;59677;-75
2022/10/05 12:25:13;;;;;;;2.90;2.20;;;;;;;18.87;44.11;98586.31;111158;1244;71406;-75
2022/10/05 12:27:45;;;;;;;2.70;2.00;;;;;;;19.66;41.49;98584.79;110419;1244;70116;-74
2022/10/05 12:30:28;;;;;;;3.00;1.90;;;;;;;20.51;38.39;98588.67;110446;1244;69906;-76
2022/10/05 12:33:15;;;;;;;2.70;1.70;;;;;;;21.37;36.33;98594.44;110539;1244;59616;-76
2022/10/05 12:36:01;;;;;;;2.50;1.80;;;;;;;21.18;36.27;98595.89;110477;1243;59624;-75
2022/10/05 12:38:53;;;;;;;2.50;1.60;;;;;;;21.26;37.17;98597.27;110495;1244;71534;-75
2022/10/05 12:41:36;;;;;;;4.30;1.70;;;;;;;21.09;37.29;98599.05;110588;1243;68407;-74
2022/10/05 12:44:30;;;;;;;2.20;1.80;;;;;;;20.95;37.76;98602.77;110642;1245;69360;-76
2022/10/05 12:47:00;;;;;;;3.00;2.00;;;;;;;20.15;38.02;98599.71;111047;1244;59726;-74